sensor_id;sensor_type;location;lat;lon;timestamp;P1;durP1;ratioP1;P2;durP2;ratioP2
83929;SDS011;73959;52.130;5.584;2024-03-02T00:02:02;2.75;;;1.60;;
83929;SDS011;73959;52.130;5.584;2024-03-02T00:04:28;1.90;;;1.60;;
83929;SDS011;73959;52.130;5.584;2024-03-02T00:06:54;5.55;;;2.10;;
83929;SDS011;73959;52.130;5.584;2024-03-02T00:09:20;3.22;;;1.45;;
83929;SDS011;73959;52.130;5.584;2024-03-02T00:11:46;4.55;;;1.63;;
83929;SDS011;73959;52.130;5.584;2024-03-02T00:14:12;3.10;;;1.65;;
83929;SDS011;73959;52.130;5.584;2024-03-02T00:16:38;3.92;;;1.73;;
83929;SDS011;73959;52.130;5.584;2024-03-02T00:19:07;4.78;;;1.63;;
83929;SDS011;73959;52.130;5.584;2024-03-02T00:21:35;2.53;;;1.70;;
83929;SDS011;73959;52.130;5.584;2024-03-02T00:24:01;2.00;;;1.23;;
83929;SDS011;73959;52.130;5.584;2024-03-02T00:26:32;3.83;;;2.00;;
83929;SDS011;73959;52.130;5.584;2024-03-02T00:28:58;3.25;;;1.45;;
83929;SDS011;73959;52.130;5.584;2024-03-02T00:31:25;2.28;;;1.38;;
83929;SDS011;73959;52.130;5.584;2024-03-02T00:33:51;2.63;;;1.48;;
83929;SDS011;73959;52.130;5.584;2024-03-02T00:36:26;2.00;;;1.60;;
83929;SDS011;73959;52.130;5.584;2024-03-02T00:38:53;2.15;;;1.45;;
83929;SDS011;73959;52.130;5.584;2024-03-02T00:41:23;4.55;;;1.30;;
83929;SDS011;73959;52.130;5.584;2024-03-02T00:43:59;3.67;;;1.50;;
83929;SDS011;73959;52.130;5.584;2024-03-02T00:46:27;2.03;;;1.48;;
83929;SDS011;73959;52.130;5.584;2024-03-02T00:48:55;4.07;;;1.70;;
83929;SDS011;73959;52.130;5.584;2024-03-02T00:51:22;3.08;;;1.40;;
83929;SDS011;73959;52.130;5.584;2024-03-02T00:53:48;3.40;;;1.63;;
83929;SDS011;73959;52.130;5.584;2024-03-02T00:56:15;1.92;;;1.42;;
83929;SDS011;73959;52.130;5.584;2024-03-02T00:58:42;2.20;;;1.55;;
83929;SDS011;73959;52.130;5.584;2024-03-02T01:01:08;3.65;;;1.67;;
83929;SDS011;73959;52.130;5.584;2024-03-02T01:03:34;2.70;;;1.63;;
83929;SDS011;73959;52.130;5.584;2024-03-02T01:06:00;3.67;;;1.80;;
83929;SDS011;73959;52.130;5.584;2024-03-02T01:08:27;4.40;;;1.40;;
83929;SDS011;73959;52.130;5.584;2024-03-02T01:10:53;2.40;;;1.17;;
83929;SDS011;73959;52.130;5.584;2024-03-02T01:13:20;2.45;;;1.00;;
83929;SDS011;73959;52.130;5.584;2024-03-02T01:15:46;1.02;;;0.93;;
83929;SDS011;73959;52.130;5.584;2024-03-02T01:18:12;1.90;;;0.82;;
83929;SDS011;73959;52.130;5.584;2024-03-02T01:20:38;0.93;;;0.70;;
83929;SDS011;73959;52.130;5.584;2024-03-02T01:23:04;0.80;;;0.80;;
83929;SDS011;73959;52.130;5.584;2024-03-02T01:25:30;0.90;;;0.60;;
83929;SDS011;73959;52.130;5.584;2024-03-02T01:27:56;0.60;;;0.60;;
83929;SDS011;73959;52.130;5.584;2024-03-02T01:30:22;0.98;;;0.63;;
83929;SDS011;73959;52.130;5.584;2024-03-02T01:32:48;0.50;;;0.50;;
83929;SDS011;73959;52.130;5.584;2024-03-02T01:35:14;2.25;;;0.60;;
83929;SDS011;73959;52.130;5.584;2024-03-02T01:37:40;0.60;;;0.60;;
83929;SDS011;73959;52.130;5.584;2024-03-02T01:40:06;0.50;;;0.50;;
83929;SDS011;73959;52.130;5.584;2024-03-02T01:42:37;1.55;;;0.60;;
83929;SDS011;73959;52.130;5.584;2024-03-02T01:45:07;0.82;;;0.45;;
83929;SDS011;73959;52.130;5.584;2024-03-02T01:47:33;1.35;;;0.60;;
83929;SDS011;73959;52.130;5.584;2024-03-02T01:49:59;2.22;;;0.80;;
83929;SDS011;73959;52.130;5.584;2024-03-02T01:52:25;0.52;;;0.43;;
83929;SDS011;73959;52.130;5.584;2024-03-02T01:54:51;0.70;;;0.50;;
83929;SDS011;73959;52.130;5.584;2024-03-02T01:57:17;1.45;;;0.60;;
83929;SDS011;73959;52.130;5.584;2024-03-02T01:59:43;0.85;;;0.52;;
83929;SDS011;73959;52.130;5.584;2024-03-02T02:02:10;2.67;;;0.80;;
83929;SDS011;73959;52.130;5.584;2024-03-02T02:04:36;1.05;;;0.52;;
83929;SDS011;73959;52.130;5.584;2024-03-02T02:07:02;0.63;;;0.50;;
83929;SDS011;73959;52.130;5.584;2024-03-02T02:09:27;1.75;;;0.77;;
83929;SDS011;73959;52.130;5.584;2024-03-02T02:11:53;1.02;;;0.60;;
83929;SDS011;73959;52.130;5.584;2024-03-02T02:14:19;0.90;;;0.80;;
83929;SDS011;73959;52.130;5.584;2024-03-02T02:16:45;1.48;;;0.50;;
83929;SDS011;73959;52.130;5.584;2024-03-02T02:19:11;1.02;;;0.70;;
83929;SDS011;73959;52.130;5.584;2024-03-02T02:21:38;0.50;;;0.50;;
83929;SDS011;73959;52.130;5.584;2024-03-02T02:24:04;1.10;;;0.65;;
83929;SDS011;73959;52.130;5.584;2024-03-02T02:26:30;0.82;;;0.50;;
83929;SDS011;73959;52.130;5.584;2024-03-02T02:28:56;0.80;;;0.70;;
83929;SDS011;73959;52.130;5.584;2024-03-02T02:31:22;1.20;;;0.70;;
83929;SDS011;73959;52.130;5.584;2024-03-02T02:33:48;0.95;;;0.60;;
83929;SDS011;73959;52.130;5.584;2024-03-02T02:36:14;0.50;;;0.50;;
83929;SDS011;73959;52.130;5.584;2024-03-02T02:38:42;0.60;;;0.60;;
83929;SDS011;73959;52.130;5.584;2024-03-02T02:41:09;1.73;;;0.73;;
83929;SDS011;73959;52.130;5.584;2024-03-02T02:43:35;0.70;;;0.70;;
83929;SDS011;73959;52.130;5.584;2024-03-02T02:46:01;0.50;;;0.50;;
83929;SDS011;73959;52.130;5.584;2024-03-02T02:48:27;0.52;;;0.47;;
83929;SDS011;73959;52.130;5.584;2024-03-02T02:50:53;0.52;;;0.52;;
83929;SDS011;73959;52.130;5.584;2024-03-02T02:53:19;0.68;;;0.68;;
83929;SDS011;73959;52.130;5.584;2024-03-02T02:55:45;1.20;;;0.68;;
83929;SDS011;73959;52.130;5.584;2024-03-02T02:58:11;1.35;;;0.50;;
83929;SDS011;73959;52.130;5.584;2024-03-02T03:00:37;0.50;;;0.50;;
83929;SDS011;73959;52.130;5.584;2024-03-02T03:03:03;0.93;;;0.52;;
83929;SDS011;73959;52.130;5.584;2024-03-02T03:05:29;1.05;;;0.60;;
83929;SDS011;73959;52.130;5.584;2024-03-02T03:07:55;0.52;;;0.50;;
83929;SDS011;73959;52.130;5.584;2024-03-02T03:10:21;0.60;;;0.50;;
83929;SDS011;73959;52.130;5.584;2024-03-02T03:12:48;0.50;;;0.50;;
83929;SDS011;73959;52.130;5.584;2024-03-02T03:15:14;0.70;;;0.70;;
83929;SDS011;73959;52.130;5.584;2024-03-02T03:17:41;1.45;;;0.55;;
83929;SDS011;73959;52.130;5.584;2024-03-02T03:20:07;0.68;;;0.50;;
83929;SDS011;73959;52.130;5.584;2024-03-02T03:22:40;1.45;;;0.65;;
83929;SDS011;73959;52.130;5.584;2024-03-02T03:25:06;0.50;;;0.50;;
83929;SDS011;73959;52.130;5.584;2024-03-02T03:27:35;2.03;;;0.90;;
83929;SDS011;73959;52.130;5.584;2024-03-02T03:30:01;1.33;;;0.68;;
83929;SDS011;73959;52.130;5.584;2024-03-02T03:32:28;1.52;;;0.80;;
83929;SDS011;73959;52.130;5.584;2024-03-02T03:34:54;1.30;;;0.60;;
83929;SDS011;73959;52.130;5.584;2024-03-02T03:37:20;0.80;;;0.60;;
83929;SDS011;73959;52.130;5.584;2024-03-02T03:39:46;1.40;;;0.82;;
83929;SDS011;73959;52.130;5.584;2024-03-02T03:42:11;1.70;;;0.68;;
83929;SDS011;73959;52.130;5.584;2024-03-02T03:44:37;0.93;;;0.68;;
83929;SDS011;73959;52.130;5.584;2024-03-02T03:47:05;0.77;;;0.65;;
83929;SDS011;73959;52.130;5.584;2024-03-02T03:49:31;0.70;;;0.70;;
83929;SDS011;73959;52.130;5.584;2024-03-02T03:51:57;0.70;;;0.70;;
83929;SDS011;73959;52.130;5.584;2024-03-02T03:54:23;2.28;;;0.70;;
83929;SDS011;73959;52.130;5.584;2024-03-02T03:56:49;0.93;;;0.80;;
83929;SDS011;73959;52.130;5.584;2024-03-02T03:59:15;0.75;;;0.70;;
83929;SDS011;73959;52.130;5.584;2024-03-02T04:01:41;1.73;;;0.57;;
83929;SDS011;73959;52.130;5.584;2024-03-02T04:04:07;0.70;;;0.70;;
83929;SDS011;73959;52.130;5.584;2024-03-02T04:06:33;1.05;;;0.68;;
83929;SDS011;73959;52.130;5.584;2024-03-02T04:08:59;0.50;;;0.50;;
83929;SDS011;73959;52.130;5.584;2024-03-02T04:11:25;0.60;;;0.60;;
83929;SDS011;73959;52.130;5.584;2024-03-02T04:13:51;1.05;;;0.68;;
83929;SDS011;73959;52.130;5.584;2024-03-02T04:16:17;0.73;;;0.57;;
83929;SDS011;73959;52.130;5.584;2024-03-02T04:18:43;0.65;;;0.65;;
83929;SDS011;73959;52.130;5.584;2024-03-02T04:21:09;1.23;;;0.70;;
83929;SDS011;73959;52.130;5.584;2024-03-02T04:23:35;1.63;;;0.60;;
83929;SDS011;73959;52.130;5.584;2024-03-02T04:26:00;0.73;;;0.60;;
83929;SDS011;73959;52.130;5.584;2024-03-02T04:28:26;0.60;;;0.60;;
83929;SDS011;73959;52.130;5.584;2024-03-02T04:30:52;0.73;;;0.57;;
83929;SDS011;73959;52.130;5.584;2024-03-02T04:33:18;1.27;;;0.70;;
83929;SDS011;73959;52.130;5.584;2024-03-02T04:35:44;1.02;;;0.80;;
83929;SDS011;73959;52.130;5.584;2024-03-02T04:38:11;0.85;;;0.50;;
83929;SDS011;73959;52.130;5.584;2024-03-02T04:40:37;1.30;;;0.50;;
83929;SDS011;73959;52.130;5.584;2024-03-02T04:43:03;1.90;;;0.60;;
83929;SDS011;73959;52.130;5.584;2024-03-02T04:45:29;3.70;;;0.47;;
83929;SDS011;73959;52.130;5.584;2024-03-02T04:47:55;0.82;;;0.50;;
83929;SDS011;73959;52.130;5.584;2024-03-02T04:50:21;1.15;;;0.77;;
83929;SDS011;73959;52.130;5.584;2024-03-02T04:52:47;1.70;;;0.50;;
83929;SDS011;73959;52.130;5.584;2024-03-02T04:55:13;0.82;;;0.40;;
83929;SDS011;73959;52.130;5.584;2024-03-02T04:58:14;1.00;;;0.47;;
83929;SDS011;73959;52.130;5.584;2024-03-02T05:00:40;1.20;;;0.50;;
83929;SDS011;73959;52.130;5.584;2024-03-02T05:03:07;0.93;;;0.70;;
83929;SDS011;73959;52.130;5.584;2024-03-02T05:05:33;1.50;;;0.60;;
83929;SDS011;73959;52.130;5.584;2024-03-02T05:08:00;0.57;;;0.52;;
83929;SDS011;73959;52.130;5.584;2024-03-02T05:10:26;2.63;;;0.68;;
83929;SDS011;73959;52.130;5.584;2024-03-02T05:12:52;1.88;;;0.70;;
83929;SDS011;73959;52.130;5.584;2024-03-02T05:15:22;2.97;;;0.80;;
83929;SDS011;73959;52.130;5.584;2024-03-02T05:17:48;1.67;;;0.70;;
83929;SDS011;73959;52.130;5.584;2024-03-02T05:20:14;1.65;;;0.80;;
83929;SDS011;73959;52.130;5.584;2024-03-02T05:22:40;0.95;;;0.55;;
83929;SDS011;73959;52.130;5.584;2024-03-02T05:25:06;1.52;;;0.65;;
83929;SDS011;73959;52.130;5.584;2024-03-02T05:27:32;2.28;;;0.70;;
83929;SDS011;73959;52.130;5.584;2024-03-02T05:29:58;0.77;;;0.60;;
83929;SDS011;73959;52.130;5.584;2024-03-02T05:32:24;1.83;;;0.50;;
83929;SDS011;73959;52.130;5.584;2024-03-02T05:34:50;2.45;;;0.77;;
83929;SDS011;73959;52.130;5.584;2024-03-02T05:37:17;1.50;;;0.50;;
83929;SDS011;73959;52.130;5.584;2024-03-02T05:39:43;0.82;;;0.52;;
83929;SDS011;73959;52.130;5.584;2024-03-02T05:42:09;1.10;;;0.60;;
83929;SDS011;73959;52.130;5.584;2024-03-02T05:44:35;3.38;;;0.73;;
83929;SDS011;73959;52.130;5.584;2024-03-02T05:47:01;1.23;;;0.60;;
83929;SDS011;73959;52.130;5.584;2024-03-02T05:49:28;1.65;;;0.90;;
83929;SDS011;73959;52.130;5.584;2024-03-02T05:51:54;2.25;;;0.73;;
83929;SDS011;73959;52.130;5.584;2024-03-02T05:54:20;1.80;;;0.80;;
83929;SDS011;73959;52.130;5.584;2024-03-02T05:56:46;2.65;;;0.70;;
83929;SDS011;73959;52.130;5.584;2024-03-02T05:59:12;1.02;;;0.60;;
83929;SDS011;73959;52.130;5.584;2024-03-02T06:01:38;2.30;;;0.80;;
83929;SDS011;73959;52.130;5.584;2024-03-02T06:04:05;1.35;;;0.77;;
83929;SDS011;73959;52.130;5.584;2024-03-02T06:06:31;2.55;;;0.73;;
83929;SDS011;73959;52.130;5.584;2024-03-02T06:08:59;3.13;;;0.70;;
83929;SDS011;73959;52.130;5.584;2024-03-02T06:11:25;1.65;;;1.00;;
83929;SDS011;73959;52.130;5.584;2024-03-02T06:13:51;1.40;;;0.80;;
83929;SDS011;73959;52.130;5.584;2024-03-02T06:16:16;1.88;;;0.75;;
83929;SDS011;73959;52.130;5.584;2024-03-02T06:18:42;1.13;;;1.00;;
83929;SDS011;73959;52.130;5.584;2024-03-02T06:21:08;0.73;;;0.70;;
83929;SDS011;73959;52.130;5.584;2024-03-02T06:23:34;1.45;;;0.73;;
83929;SDS011;73959;52.130;5.584;2024-03-02T06:26:00;1.30;;;0.73;;
83929;SDS011;73959;52.130;5.584;2024-03-02T06:28:27;2.13;;;0.98;;
83929;SDS011;73959;52.130;5.584;2024-03-02T06:30:53;1.60;;;0.82;;
83929;SDS011;73959;52.130;5.584;2024-03-02T06:33:19;4.57;;;1.05;;
83929;SDS011;73959;52.130;5.584;2024-03-02T06:35:45;1.77;;;0.90;;
83929;SDS011;73959;52.130;5.584;2024-03-02T06:38:11;4.00;;;0.93;;
83929;SDS011;73959;52.130;5.584;2024-03-02T06:40:37;2.10;;;0.73;;
83929;SDS011;73959;52.130;5.584;2024-03-02T06:43:04;4.55;;;0.88;;
83929;SDS011;73959;52.130;5.584;2024-03-02T06:45:30;1.75;;;0.80;;
83929;SDS011;73959;52.130;5.584;2024-03-02T06:47:56;2.08;;;1.00;;
83929;SDS011;73959;52.130;5.584;2024-03-02T06:50:22;1.48;;;0.95;;
83929;SDS011;73959;52.130;5.584;2024-03-02T06:52:48;1.55;;;0.90;;
83929;SDS011;73959;52.130;5.584;2024-03-02T06:55:14;0.80;;;0.60;;
83929;SDS011;73959;52.130;5.584;2024-03-02T06:57:40;2.58;;;1.35;;
83929;SDS011;73959;52.130;5.584;2024-03-02T07:00:06;1.67;;;0.80;;
83929;SDS011;73959;52.130;5.584;2024-03-02T07:02:34;2.85;;;0.82;;
83929;SDS011;73959;52.130;5.584;2024-03-02T07:05:01;1.75;;;0.77;;
83929;SDS011;73959;52.130;5.584;2024-03-02T07:07:27;1.83;;;0.75;;
83929;SDS011;73959;52.130;5.584;2024-03-02T07:09:53;2.17;;;1.02;;
83929;SDS011;73959;52.130;5.584;2024-03-02T07:12:19;3.97;;;1.13;;
83929;SDS011;73959;52.130;5.584;2024-03-02T07:14:45;3.60;;;1.00;;
83929;SDS011;73959;52.130;5.584;2024-03-02T07:17:32;3.08;;;0.73;;
83929;SDS011;73959;52.130;5.584;2024-03-02T07:19:58;2.78;;;0.90;;
83929;SDS011;73959;52.130;5.584;2024-03-02T07:22:24;3.85;;;0.90;;
83929;SDS011;73959;52.130;5.584;2024-03-02T07:24:50;2.60;;;0.80;;
83929;SDS011;73959;52.130;5.584;2024-03-02T07:27:16;1.75;;;1.20;;
83929;SDS011;73959;52.130;5.584;2024-03-02T07:29:42;0.93;;;0.68;;
83929;SDS011;73959;52.130;5.584;2024-03-02T07:32:09;3.72;;;1.00;;
83929;SDS011;73959;52.130;5.584;2024-03-02T07:34:35;3.25;;;0.95;;
83929;SDS011;73959;52.130;5.584;2024-03-02T07:37:02;1.45;;;1.00;;
83929;SDS011;73959;52.130;5.584;2024-03-02T07:39:28;3.45;;;1.08;;
83929;SDS011;73959;52.130;5.584;2024-03-02T07:41:54;3.05;;;0.80;;
83929;SDS011;73959;52.130;5.584;2024-03-02T07:44:21;2.47;;;0.90;;
83929;SDS011;73959;52.130;5.584;2024-03-02T07:46:47;3.05;;;0.95;;
83929;SDS011;73959;52.130;5.584;2024-03-02T07:49:16;1.65;;;0.80;;
83929;SDS011;73959;52.130;5.584;2024-03-02T07:51:42;5.55;;;1.10;;
83929;SDS011;73959;52.130;5.584;2024-03-02T07:54:08;2.50;;;0.95;;
83929;SDS011;73959;52.130;5.584;2024-03-02T07:56:34;3.10;;;0.88;;
83929;SDS011;73959;52.130;5.584;2024-03-02T07:59:01;2.60;;;0.90;;
83929;SDS011;73959;52.130;5.584;2024-03-02T08:01:27;2.90;;;0.90;;
83929;SDS011;73959;52.130;5.584;2024-03-02T08:03:55;2.63;;;1.20;;
83929;SDS011;73959;52.130;5.584;2024-03-02T08:06:23;3.67;;;1.08;;
83929;SDS011;73959;52.130;5.584;2024-03-02T08:08:52;2.67;;;0.70;;
83929;SDS011;73959;52.130;5.584;2024-03-02T08:11:18;1.88;;;0.70;;
83929;SDS011;73959;52.130;5.584;2024-03-02T08:13:44;3.38;;;0.98;;
83929;SDS011;73959;52.130;5.584;2024-03-02T08:16:10;0.70;;;0.70;;
83929;SDS011;73959;52.130;5.584;2024-03-02T08:18:36;1.65;;;0.90;;
83929;SDS011;73959;52.130;5.584;2024-03-02T08:21:02;3.65;;;1.00;;
83929;SDS011;73959;52.130;5.584;2024-03-02T08:23:28;3.80;;;0.77;;
83929;SDS011;73959;52.130;5.584;2024-03-02T08:25:54;3.00;;;1.10;;
83929;SDS011;73959;52.130;5.584;2024-03-02T08:28:20;2.22;;;0.70;;
83929;SDS011;73959;52.130;5.584;2024-03-02T08:30:45;1.65;;;0.80;;
83929;SDS011;73959;52.130;5.584;2024-03-02T08:33:11;2.90;;;0.80;;
83929;SDS011;73959;52.130;5.584;2024-03-02T08:35:37;3.15;;;0.73;;
83929;SDS011;73959;52.130;5.584;2024-03-02T08:38:03;3.92;;;1.17;;
83929;SDS011;73959;52.130;5.584;2024-03-02T08:40:29;2.15;;;0.77;;
83929;SDS011;73959;52.130;5.584;2024-03-02T08:42:56;3.35;;;0.90;;
83929;SDS011;73959;52.130;5.584;2024-03-02T08:45:21;1.30;;;0.70;;
83929;SDS011;73959;52.130;5.584;2024-03-02T08:47:47;1.83;;;0.80;;
83929;SDS011;73959;52.130;5.584;2024-03-02T08:50:13;2.90;;;0.70;;
83929;SDS011;73959;52.130;5.584;2024-03-02T08:52:39;3.67;;;1.02;;
83929;SDS011;73959;52.130;5.584;2024-03-02T08:55:06;3.35;;;0.90;;
83929;SDS011;73959;52.130;5.584;2024-03-02T08:57:32;3.25;;;0.90;;
83929;SDS011;73959;52.130;5.584;2024-03-02T08:59:58;2.55;;;0.98;;
83929;SDS011;73959;52.130;5.584;2024-03-02T09:02:24;4.30;;;0.70;;
83929;SDS011;73959;52.130;5.584;2024-03-02T09:04:50;4.30;;;0.98;;
83929;SDS011;73959;52.130;5.584;2024-03-02T09:07:16;3.25;;;0.75;;
83929;SDS011;73959;52.130;5.584;2024-03-02T09:09:42;2.95;;;0.80;;
83929;SDS011;73959;52.130;5.584;2024-03-02T09:12:08;3.70;;;0.80;;
83929;SDS011;73959;52.130;5.584;2024-03-02T09:14:34;3.72;;;0.70;;
83929;SDS011;73959;52.130;5.584;2024-03-02T09:17:01;4.55;;;0.90;;
83929;SDS011;73959;52.130;5.584;2024-03-02T09:19:28;2.90;;;0.90;;
83929;SDS011;73959;52.130;5.584;2024-03-02T09:21:54;2.05;;;0.80;;
83929;SDS011;73959;52.130;5.584;2024-03-02T09:24:21;3.88;;;1.30;;
83929;SDS011;73959;52.130;5.584;2024-03-02T09:26:47;3.92;;;0.90;;
83929;SDS011;73959;52.130;5.584;2024-03-02T09:29:13;4.65;;;1.08;;
83929;SDS011;73959;52.130;5.584;2024-03-02T09:31:42;2.22;;;1.00;;
83929;SDS011;73959;52.130;5.584;2024-03-02T09:34:09;4.85;;;0.98;;
83929;SDS011;73959;52.130;5.584;2024-03-02T09:36:35;2.35;;;1.00;;
83929;SDS011;73959;52.130;5.584;2024-03-02T09:39:01;5.55;;;1.20;;
83929;SDS011;73959;52.130;5.584;2024-03-02T09:41:28;4.88;;;1.00;;
83929;SDS011;73959;52.130;5.584;2024-03-02T09:43:55;4.80;;;0.88;;
83929;SDS011;73959;52.130;5.584;2024-03-02T09:46:21;5.18;;;1.17;;
83929;SDS011;73959;52.130;5.584;2024-03-02T09:48:47;3.70;;;1.20;;
83929;SDS011;73959;52.130;5.584;2024-03-02T09:51:13;3.85;;;1.40;;
83929;SDS011;73959;52.130;5.584;2024-03-02T09:53:39;3.85;;;1.00;;
83929;SDS011;73959;52.130;5.584;2024-03-02T09:56:05;2.85;;;1.15;;
83929;SDS011;73959;52.130;5.584;2024-03-02T09:58:32;3.33;;;1.13;;
83929;SDS011;73959;52.130;5.584;2024-03-02T10:00:58;3.90;;;1.00;;
83929;SDS011;73959;52.130;5.584;2024-03-02T10:03:24;7.05;;;1.13;;
83929;SDS011;73959;52.130;5.584;2024-03-02T10:05:50;2.28;;;0.80;;
83929;SDS011;73959;52.130;5.584;2024-03-02T10:08:16;1.80;;;0.80;;
83929;SDS011;73959;52.130;5.584;2024-03-02T10:10:42;4.93;;;1.70;;
83929;SDS011;73959;52.130;5.584;2024-03-02T10:13:09;3.40;;;0.90;;
83929;SDS011;73959;52.130;5.584;2024-03-02T10:15:36;4.00;;;0.98;;
83929;SDS011;73959;52.130;5.584;2024-03-02T10:18:08;4.47;;;1.30;;
83929;SDS011;73959;52.130;5.584;2024-03-02T10:20:35;4.03;;;0.90;;
83929;SDS011;73959;52.130;5.584;2024-03-02T10:25:36;3.65;;;0.90;;
83929;SDS011;73959;52.130;5.584;2024-03-02T10:28:02;2.92;;;0.85;;
83929;SDS011;73959;52.130;5.584;2024-03-02T10:30:30;2.20;;;0.70;;
83929;SDS011;73959;52.130;5.584;2024-03-02T10:32:56;4.15;;;1.08;;
83929;SDS011;73959;52.130;5.584;2024-03-02T10:35:22;2.90;;;0.80;;
83929;SDS011;73959;52.130;5.584;2024-03-02T10:37:49;4.63;;;1.15;;
83929;SDS011;73959;52.130;5.584;2024-03-02T10:40:15;2.40;;;0.90;;
83929;SDS011;73959;52.130;5.584;2024-03-02T10:42:41;3.35;;;1.13;;
83929;SDS011;73959;52.130;5.584;2024-03-02T10:45:09;3.65;;;1.08;;
83929;SDS011;73959;52.130;5.584;2024-03-02T10:47:36;3.03;;;0.70;;
83929;SDS011;73959;52.130;5.584;2024-03-02T10:50:03;3.95;;;0.90;;
83929;SDS011;73959;52.130;5.584;2024-03-02T10:52:33;3.17;;;1.17;;
83929;SDS011;73959;52.130;5.584;2024-03-02T10:54:59;4.35;;;0.90;;
83929;SDS011;73959;52.130;5.584;2024-03-02T10:57:25;3.90;;;1.10;;
83929;SDS011;73959;52.130;5.584;2024-03-02T10:59:52;2.22;;;0.98;;
83929;SDS011;73959;52.130;5.584;2024-03-02T11:02:22;5.43;;;0.80;;
83929;SDS011;73959;52.130;5.584;2024-03-02T11:04:50;4.75;;;1.15;;
83929;SDS011;73959;52.130;5.584;2024-03-02T11:07:20;3.25;;;0.80;;
83929;SDS011;73959;52.130;5.584;2024-03-02T11:09:50;7.20;;;1.25;;
83929;SDS011;73959;52.130;5.584;2024-03-02T11:12:22;3.65;;;0.80;;
83929;SDS011;73959;52.130;5.584;2024-03-02T11:14:49;4.25;;;0.70;;
83929;SDS011;73959;52.130;5.584;2024-03-02T11:17:19;4.65;;;1.02;;
83929;SDS011;73959;52.130;5.584;2024-03-02T11:19:45;3.75;;;0.88;;
83929;SDS011;73959;52.130;5.584;2024-03-02T11:22:12;2.67;;;1.00;;
83929;SDS011;73959;52.130;5.584;2024-03-02T11:24:38;6.03;;;1.10;;
83929;SDS011;73959;52.130;5.584;2024-03-02T11:27:04;2.15;;;0.60;;
83929;SDS011;73959;52.130;5.584;2024-03-02T11:32:06;3.38;;;0.90;;
83929;SDS011;73959;52.130;5.584;2024-03-02T11:34:39;3.90;;;1.05;;
83929;SDS011;73959;52.130;5.584;2024-03-02T11:37:10;2.58;;;0.68;;
83929;SDS011;73959;52.130;5.584;2024-03-02T11:39:36;2.25;;;0.90;;
83929;SDS011;73959;52.130;5.584;2024-03-02T11:42:05;5.65;;;0.82;;
83929;SDS011;73959;52.130;5.584;2024-03-02T11:44:32;1.98;;;0.90;;
83929;SDS011;73959;52.130;5.584;2024-03-02T11:46:58;2.85;;;0.98;;
83929;SDS011;73959;52.130;5.584;2024-03-02T11:52:03;3.72;;;1.08;;
83929;SDS011;73959;52.130;5.584;2024-03-02T11:54:31;2.30;;;1.13;;
83929;SDS011;73959;52.130;5.584;2024-03-02T11:57:03;6.13;;;2.50;;
83929;SDS011;73959;52.130;5.584;2024-03-02T11:59:30;5.68;;;1.35;;
83929;SDS011;73959;52.130;5.584;2024-03-02T12:01:56;4.30;;;2.03;;
83929;SDS011;73959;52.130;5.584;2024-03-02T12:04:21;2.75;;;1.10;;
83929;SDS011;73959;52.130;5.584;2024-03-02T12:06:48;2.25;;;0.70;;
83929;SDS011;73959;52.130;5.584;2024-03-02T12:09:15;2.88;;;1.05;;
83929;SDS011;73959;52.130;5.584;2024-03-02T12:11:41;6.72;;;1.15;;
83929;SDS011;73959;52.130;5.584;2024-03-02T12:14:11;3.28;;;0.85;;
83929;SDS011;73959;52.130;5.584;2024-03-02T12:16:37;1.83;;;0.90;;
83929;SDS011;73959;52.130;5.584;2024-03-02T12:19:05;2.72;;;1.00;;
83929;SDS011;73959;52.130;5.584;2024-03-02T12:21:31;3.05;;;1.40;;
83929;SDS011;73959;52.130;5.584;2024-03-02T12:23:57;3.90;;;1.00;;
83929;SDS011;73959;52.130;5.584;2024-03-02T12:26:23;1.80;;;0.95;;
83929;SDS011;73959;52.130;5.584;2024-03-02T12:28:49;3.25;;;1.27;;
83929;SDS011;73959;52.130;5.584;2024-03-02T12:31:16;3.63;;;1.08;;
83929;SDS011;73959;52.130;5.584;2024-03-02T12:33:42;3.05;;;1.15;;
83929;SDS011;73959;52.130;5.584;2024-03-02T12:36:13;3.72;;;1.08;;
83929;SDS011;73959;52.130;5.584;2024-03-02T12:38:45;1.13;;;0.70;;
83929;SDS011;73959;52.130;5.584;2024-03-02T12:41:14;4.05;;;1.50;;
83929;SDS011;73959;52.130;5.584;2024-03-02T12:43:40;2.33;;;1.35;;
83929;SDS011;73959;52.130;5.584;2024-03-02T12:46:06;4.78;;;1.02;;
83929;SDS011;73959;52.130;5.584;2024-03-02T12:48:32;2.97;;;1.15;;
83929;SDS011;73959;52.130;5.584;2024-03-02T12:50:59;2.47;;;0.90;;
83929;SDS011;73959;52.130;5.584;2024-03-02T12:53:25;4.00;;;1.10;;
83929;SDS011;73959;52.130;5.584;2024-03-02T12:55:51;3.45;;;1.20;;
83929;SDS011;73959;52.130;5.584;2024-03-02T12:58:21;4.35;;;1.30;;
83929;SDS011;73959;52.130;5.584;2024-03-02T13:00:47;8.57;;;1.55;;
83929;SDS011;73959;52.130;5.584;2024-03-02T13:03:13;5.80;;;1.92;;
83929;SDS011;73959;52.130;5.584;2024-03-02T13:05:43;4.68;;;3.10;;
83929;SDS011;73959;52.130;5.584;2024-03-02T13:08:13;4.57;;;2.20;;
83929;SDS011;73959;52.130;5.584;2024-03-02T13:10:39;4.40;;;1.40;;
83929;SDS011;73959;52.130;5.584;2024-03-02T13:13:06;2.83;;;1.30;;
83929;SDS011;73959;52.130;5.584;2024-03-02T13:15:35;4.68;;;1.50;;
83929;SDS011;73959;52.130;5.584;2024-03-02T13:18:01;6.35;;;2.55;;
83929;SDS011;73959;52.130;5.584;2024-03-02T13:20:30;4.63;;;1.40;;
83929;SDS011;73959;52.130;5.584;2024-03-02T13:22:57;6.07;;;2.05;;
83929;SDS011;73959;52.130;5.584;2024-03-02T13:25:23;12.32;;;2.25;;
83929;SDS011;73959;52.130;5.584;2024-03-02T13:27:49;7.57;;;1.95;;
83929;SDS011;73959;52.130;5.584;2024-03-02T13:30:16;1.88;;;1.00;;
83929;SDS011;73959;52.130;5.584;2024-03-02T13:32:42;5.97;;;1.30;;
83929;SDS011;73959;52.130;5.584;2024-03-02T13:35:08;4.28;;;1.27;;
83929;SDS011;73959;52.130;5.584;2024-03-02T13:37:36;5.03;;;1.20;;
83929;SDS011;73959;52.130;5.584;2024-03-02T13:40:02;11.98;;;2.47;;
83929;SDS011;73959;52.130;5.584;2024-03-02T13:42:29;7.10;;;1.45;;
83929;SDS011;73959;52.130;5.584;2024-03-02T13:44:55;5.57;;;1.80;;
83929;SDS011;73959;52.130;5.584;2024-03-02T13:47:22;3.17;;;1.13;;
83929;SDS011;73959;52.130;5.584;2024-03-02T13:49:48;3.97;;;1.20;;
83929;SDS011;73959;52.130;5.584;2024-03-02T13:52:14;4.95;;;1.05;;
83929;SDS011;73959;52.130;5.584;2024-03-02T13:54:43;2.95;;;1.08;;
83929;SDS011;73959;52.130;5.584;2024-03-02T13:57:09;2.30;;;1.10;;
83929;SDS011;73959;52.130;5.584;2024-03-02T13:59:35;4.47;;;1.15;;
83929;SDS011;73959;52.130;5.584;2024-03-02T14:02:02;5.20;;;1.50;;
83929;SDS011;73959;52.130;5.584;2024-03-02T14:04:34;3.97;;;1.20;;
83929;SDS011;73959;52.130;5.584;2024-03-02T14:07:01;2.58;;;1.17;;
83929;SDS011;73959;52.130;5.584;2024-03-02T14:09:27;2.17;;;1.20;;
83929;SDS011;73959;52.130;5.584;2024-03-02T14:11:53;4.57;;;1.70;;
83929;SDS011;73959;52.130;5.584;2024-03-02T14:14:20;3.53;;;1.20;;
83929;SDS011;73959;52.130;5.584;2024-03-02T14:16:46;4.53;;;1.88;;
83929;SDS011;73959;52.130;5.584;2024-03-02T14:19:12;7.97;;;2.13;;
83929;SDS011;73959;52.130;5.584;2024-03-02T14:21:39;5.28;;;1.85;;
83929;SDS011;73959;52.130;5.584;2024-03-02T14:24:05;4.40;;;1.55;;
83929;SDS011;73959;52.130;5.584;2024-03-02T14:26:34;2.63;;;1.50;;
83929;SDS011;73959;52.130;5.584;2024-03-02T14:29:01;3.53;;;1.30;;
83929;SDS011;73959;52.130;5.584;2024-03-02T14:31:28;2.95;;;1.38;;
83929;SDS011;73959;52.130;5.584;2024-03-02T14:33:54;3.17;;;1.30;;
83929;SDS011;73959;52.130;5.584;2024-03-02T14:36:20;2.78;;;1.30;;
83929;SDS011;73959;52.130;5.584;2024-03-02T14:38:46;3.83;;;1.48;;
83929;SDS011;73959;52.130;5.584;2024-03-02T14:41:13;7.65;;;1.50;;
83929;SDS011;73959;52.130;5.584;2024-03-02T14:43:39;10.10;;;4.63;;
83929;SDS011;73959;52.130;5.584;2024-03-02T14:46:05;6.38;;;2.38;;
83929;SDS011;73959;52.130;5.584;2024-03-02T14:48:37;5.82;;;1.75;;
83929;SDS011;73959;52.130;5.584;2024-03-02T14:51:03;5.18;;;1.20;;
83929;SDS011;73959;52.130;5.584;2024-03-02T14:53:30;5.28;;;1.45;;